createdAt,value
2022-10-04T00:02:15.371Z,102062.69
2022-10-04T00:04:53.009Z,102064.66
2022-10-04T00:07:26.492Z,102069.50
2022-10-04T00:10:18.399Z,102061.66
2022-10-04T00:13:05.956Z,102061.94
2022-10-04T00:15:39.137Z,102064.13
2022-10-04T00:18:11.326Z,102062.28
2022-10-04T00:20:47.433Z,102054.13
2022-10-04T00:23:38.099Z,102040.47
2022-10-04T00:26:10.723Z,102045.31
2022-10-04T00:28:37.023Z,102042.06
2022-10-04T00:31:24.717Z,102041.16
2022-10-04T00:34:17.239Z,102043.63
2022-10-04T00:36:51.791Z,102039.03
2022-10-04T00:39:34.269Z,102039.25
2022-10-04T00:42:09.795Z,102043.69
2022-10-04T00:44:55.536Z,102028.25
2022-10-04T00:47:46.210Z,102024.13
2022-10-04T00:50:26.480Z,102027.50
2022-10-04T00:52:56.926Z,102023.22
2022-10-04T00:55:49.602Z,102018.59
2022-10-04T00:58:23.749Z,102008.28
2022-10-04T01:00:54.111Z,102017.34
2022-10-04T01:03:31.841Z,102007.34
2022-10-04T01:06:05.458Z,102007.81
2022-10-04T01:08:36.449Z,101996.03
2022-10-04T01:11:19.337Z,101998.31
2022-10-04T01:13:56.565Z,101996.91
2022-10-04T01:16:28.649Z,101997.19
2022-10-04T01:18:56.287Z,101997.56
2022-10-04T01:21:30.827Z,101999.84
2022-10-04T01:24:00.161Z,101992.75
2022-10-04T01:26:26.507Z,102006.19
2022-10-04T01:28:55.081Z,101993.97
2022-10-04T01:31:22.186Z,101983.28
2022-10-04T01:33:48.834Z,101985.50
2022-10-04T01:36:15.415Z,101988.03
2022-10-04T01:38:41.948Z,101983.75
2022-10-04T01:41:11.510Z,101984.91
2022-10-04T01:43:40.752Z,101979.94
2022-10-04T01:46:14.255Z,101967.84
2022-10-04T01:48:44.600Z,101961.63
2022-10-04T01:51:22.078Z,101949.22
2022-10-04T01:54:17.705Z,101945.81
2022-10-04T01:56:50.892Z,101938.72
2022-10-04T01:59:24.427Z,101937.41
2022-10-04T02:01:57.770Z,101937.13
2022-10-04T02:04:29.280Z,101943.84
2022-10-04T02:06:59.024Z,101952.69
2022-10-04T02:09:30.576Z,101946.69
2022-10-04T02:11:58.204Z,101945.88
2022-10-04T02:14:33.183Z,101937.56
2022-10-04T02:17:03.180Z,101942.13
2022-10-04T02:19:39.584Z,101932.97
2022-10-04T02:22:08.775Z,101919.59
2022-10-04T02:24:38.845Z,101917.78
2022-10-04T02:27:06.288Z,101911.09
2022-10-04T02:29:33.086Z,101905.44
2022-10-04T02:32:18.470Z,101899.44
2022-10-04T02:34:47.596Z,101896.16
2022-10-04T02:37:15.321Z,101892.19
2022-10-04T02:39:49.421Z,101900.06
2022-10-04T02:42:35.386Z,101896.03
2022-10-04T02:45:21.280Z,101886.38
2022-10-04T02:47:53.270Z,101886.69
2022-10-04T02:50:35.472Z,101876.81
2022-10-04T02:53:19.240Z,101876.72
2022-10-04T02:55:47.557Z,101870.44
2022-10-04T02:58:17.387Z,101880.13
2022-10-04T03:00:49.891Z,101870.59
2022-10-04T03:03:27.030Z,101878.41
2022-10-04T03:06:18.012Z,101873.56
2022-10-04T03:08:52.832Z,101873.72
2022-10-04T03:11:24.188Z,101872.44
2022-10-04T03:13:54.734Z,101866.59
2022-10-04T03:16:22.020Z,101853.34
2022-10-04T03:18:50.848Z,101862.63
2022-10-04T03:21:20.718Z,101853.06
2022-10-04T03:23:51.088Z,101856.91
2022-10-04T03:26:38.984Z,101847.34
2022-10-04T03:29:10.240Z,101840.81
2022-10-04T03:31:43.176Z,101848.94
2022-10-04T03:34:15.591Z,101845.97
2022-10-04T03:36:43.138Z,101835.88
2022-10-04T03:39:11.877Z,101834.59
2022-10-04T03:41:40.932Z,101840.84
2022-10-04T03:44:15.767Z,101834.59
2022-10-04T03:46:44.648Z,101819.66
2022-10-04T03:49:17.667Z,101821.63
2022-10-04T03:51:48.930Z,101821.94
2022-10-04T03:54:23.629Z,101823.66
2022-10-04T03:56:54.198Z,101822.78
2022-10-04T03:59:25.444Z,101822.66
2022-10-04T04:02:13.371Z,101826.19
2022-10-04T04:04:45.907Z,101827.03
2022-10-04T04:07:17.135Z,101825.06
2022-10-04T04:09:46.515Z,101816.94
2022-10-04T04:12:27.119Z,101824.38
2022-10-04T04:14:54.257Z,101815.53
2022-10-04T04:17:50.941Z,101813.13
2022-10-04T04:20:23.882Z,101812.41
2022-10-04T04:23:01.696Z,101811.41
2022-10-04T04:25:32.243Z,101816.25
2022-10-04T04:28:13.964Z,101822.38
2022-10-04T04:30:46.930Z,101808.28
2022-10-04T04:33:25.352Z,101809.56
2022-10-04T04:35:55.517Z,101815.25
2022-10-04T04:38:24.864Z,101810.00
2022-10-04T04:40:56.030Z,101804.84
2022-10-04T04:43:26.556Z,101805.84
2022-10-04T04:46:14.922Z,101806.84
2022-10-04T04:48:45.102Z,101810.13
2022-10-04T04:51:20.557Z,101811.00
2022-10-04T04:53:48.334Z,101799.19
2022-10-04T04:56:19.700Z,101795.47
2022-10-04T04:58:48.529Z,101804.72
2022-10-04T05:01:31.527Z,101805.44
2022-10-04T05:04:12.411Z,101797.31
2022-10-04T05:06:41.310Z,101799.31
2022-10-04T05:09:32.831Z,101792.34
2022-10-04T05:12:08.451Z,101792.06
2022-10-04T05:14:39.559Z,101793.47
2022-10-04T05:17:06.531Z,101792.78
2022-10-04T05:19:37.784Z,101801.72
2022-10-04T05:22:11.408Z,101806.13
2022-10-04T05:24:51.364Z,101803.28
2022-10-04T05:27:40.381Z,101808.84
2022-10-04T05:30:24.753Z,101812.41
2022-10-04T05:33:13.796Z,101811.38
2022-10-04T05:35:43.161Z,101806.81
2022-10-04T05:38:23.662Z,101815.59
2022-10-04T05:41:09.069Z,101814.19
2022-10-04T05:43:46.271Z,101805.53
2022-10-04T05:46:24.455Z,101807.94
2022-10-04T05:48:55.281Z,101810.78
2022-10-04T05:51:28.777Z,101810.63
2022-10-04T05:53:59.730Z,101822.88
2022-10-04T05:56:41.407Z,101818.63
2022-10-04T05:59:50.658Z,101809.81
2022-10-04T06:02:54.825Z,101807.06
2022-10-04T06:06:12.415Z,101810.50
2022-10-04T06:08:41.784Z,101812.97
2022-10-04T06:11:11.779Z,101816.19
2022-10-04T06:13:59.450Z,101817.69
2022-10-04T06:16:44.941Z,101814.88
2022-10-04T06:19:37.752Z,101814.19
2022-10-04T06:22:14.451Z,101816.34
2022-10-04T06:24:45.430Z,101814.50
2022-10-04T06:27:19.996Z,101810.50
2022-10-04T06:29:56.257Z,101805.13
2022-10-04T06:32:56.976Z,101808.84
2022-10-04T06:35:32.750Z,101815.53
2022-10-04T06:38:40.307Z,101808.78
2022-10-04T06:41:26.594Z,101811.09
2022-10-04T06:44:16.148Z,101805.28
2022-10-04T06:47:11.832Z,101797.31
2022-10-04T06:50:00.016Z,101808.72
2022-10-04T06:52:40.897Z,101810.84
2022-10-04T06:55:33.152Z,101803.00
2022-10-04T06:58:33.087Z,101808.28
2022-10-04T07:01:09.152Z,101799.16
2022-10-04T07:03:52.478Z,101795.31
2022-10-04T07:06:25.827Z,101793.75
2022-10-04T07:08:59.498Z,101800.19
2022-10-04T07:11:37.717Z,101801.31
2022-10-04T07:14:04.046Z,101792.50
2022-10-04T07:16:51.084Z,101781.81
2022-10-04T07:19:20.180Z,101779.81
2022-10-04T07:22:15.199Z,101784.06
2022-10-04T07:24:59.852Z,101774.84
2022-10-04T07:27:32.397Z,101789.94
2022-10-04T07:30:04.433Z,101779.13
2022-10-04T07:32:44.290Z,101788.06
2022-10-04T07:35:13.008Z,101783.06
2022-10-04T07:38:13.164Z,101782.38
2022-10-04T07:41:07.534Z,101778.94
2022-10-04T07:43:59.977Z,101776.97
2022-10-04T07:46:41.933Z,101771.84
2022-10-04T07:49:20.374Z,101781.34
2022-10-04T07:51:57.005Z,101782.91
2022-10-04T07:54:47.206Z,101788.13
2022-10-04T07:57:21.934Z,101799.78
2022-10-04T08:00:07.184Z,101789.81
2022-10-04T08:02:45.619Z,101778.88
2022-10-04T08:05:29.533Z,101779.38
2022-10-04T08:07:59.977Z,101777.81
2022-10-04T08:10:31.749Z,101775.91
2022-10-04T08:13:18.895Z,101780.66
2022-10-04T08:15:46.314Z,101780.97
2022-10-04T08:18:27.448Z,101769.03
2022-10-04T08:20:59.607Z,101785.44
2022-10-04T08:23:35.663Z,101774.38
2022-10-04T08:26:07.879Z,101771.25
2022-10-04T08:29:22.399Z,101773.72
2022-10-04T08:32:05.524Z,101768.72
2022-10-04T08:34:54.724Z,101769.72
2022-10-04T08:37:24.182Z,101776.97
2022-10-04T08:40:33.233Z,101787.75
2022-10-04T08:43:35.569Z,101774.84
2022-10-04T08:46:42.734Z,101774.44
2022-10-04T08:49:31.756Z,101766.59
2022-10-04T08:52:41.667Z,101762.91
2022-10-04T08:55:39.259Z,101764.53
2022-10-04T08:58:29.159Z,101766.03
2022-10-04T09:01:11.487Z,101771.28
2022-10-04T09:04:12.825Z,101773.31
2022-10-04T09:06:54.884Z,101767.09
2022-10-04T09:09:45.312Z,101760.66
2022-10-04T09:12:42.247Z,101755.25
2022-10-04T09:15:21.237Z,101762.84
2022-10-04T09:18:14.077Z,101773.97
2022-10-04T09:21:15.510Z,101765.13
2022-10-04T09:24:18.660Z,101763.44
2022-10-04T09:26:51.957Z,101766.25
2022-10-04T09:30:07.145Z,101765.53
2022-10-04T09:32:51.443Z,101763.09
2022-10-04T09:35:36.639Z,101758.09
2022-10-04T09:38:26.317Z,101760.34
2022-10-04T09:41:03.750Z,101768.88
2022-10-04T09:43:36.218Z,101748.84
2022-10-04T09:46:16.381Z,101749.81
2022-10-04T09:48:57.890Z,101751.44
2022-10-04T09:52:01.808Z,101761.66
2022-10-04T09:54:55.039Z,101760.81
2022-10-04T09:57:33.889Z,101755.25
2022-10-04T10:00:24.892Z,101745.47
2022-10-04T10:03:34.181Z,101747.84
2022-10-04T10:06:29.822Z,101735.03
2022-10-04T10:09:44.029Z,101734.56
2022-10-04T10:13:00.062Z,101740.50
2022-10-04T10:15:32.411Z,101734.13
2022-10-04T10:18:46.059Z,101723.72
2022-10-04T10:21:26.804Z,101728.41
2022-10-04T10:24:19.408Z,101731.16
2022-10-04T10:27:24.966Z,101734.63
2022-10-04T10:29:57.090Z,101722.66
2022-10-04T10:32:42.489Z,101719.97
2022-10-04T10:35:26.714Z,101727.03
2022-10-04T10:38:08.483Z,101738.56
2022-10-04T10:40:58.349Z,101741.75
2022-10-04T10:43:46.407Z,101741.38
2022-10-04T10:46:31.401Z,101744.41
2022-10-04T10:49:21.386Z,101740.00
2022-10-04T10:52:33.076Z,101741.69
2022-10-04T10:55:29.407Z,101742.22
2022-10-04T10:58:34.072Z,101734.44
2022-10-04T11:02:01.010Z,101731.72
2022-10-04T11:04:42.523Z,101719.06
2022-10-04T11:07:37.246Z,101713.38
2022-10-04T11:10:41.789Z,101714.78
2022-10-04T11:13:35.550Z,101712.97
2022-10-04T11:16:35.417Z,101708.91
2022-10-04T11:19:24.070Z,101700.13
2022-10-04T11:21:53.497Z,101701.81
2022-10-04T11:25:00.427Z,101699.75
2022-10-04T11:27:33.297Z,101703.19
2022-10-04T11:30:26.629Z,101694.50
2022-10-04T11:33:11.831Z,101685.72
2022-10-04T11:36:20.620Z,101679.88
2022-10-04T11:39:11.955Z,101653.88
2022-10-04T11:42:01.351Z,101668.44
2022-10-04T11:44:43.973Z,101661.13
2022-10-04T11:47:49.357Z,101667.41
2022-10-04T11:50:24.705Z,101664.56
2022-10-04T11:53:25.857Z,101667.88
2022-10-04T11:56:07.599Z,101659.91
2022-10-04T11:58:42.786Z,101662.69
2022-10-04T12:01:14.108Z,101660.34
2022-10-04T12:03:55.062Z,101661.13
2022-10-04T12:07:26.710Z,101669.78
2022-10-04T12:10:28.723Z,101669.94
2022-10-04T12:13:14.206Z,101667.66
2022-10-04T12:16:10.976Z,101669.03
2022-10-04T12:18:58.354Z,101667.59
2022-10-04T12:21:41.036Z,101659.78
2022-10-04T12:24:49.063Z,101652.94
2022-10-04T12:27:41.894Z,101652.78
2022-10-04T12:30:17.099Z,101653.78
2022-10-04T12:33:06.892Z,101644.25
2022-10-04T12:35:54.961Z,101637.91
2022-10-04T12:38:46.540Z,101630.47
2022-10-04T12:41:30.779Z,101623.53
2022-10-04T12:44:15.369Z,101625.66
2022-10-04T12:47:02.969Z,101614.66
2022-10-04T12:49:56.329Z,101611.09
2022-10-04T12:52:27.103Z,101623.06
2022-10-04T12:55:09.892Z,101619.75
2022-10-04T12:57:47.586Z,101613.59
2022-10-04T13:00:20.835Z,101612.97
2022-10-04T13:03:02.893Z,101603.25
2022-10-04T13:05:47.766Z,101603.88
2022-10-04T13:08:27.797Z,101604.53
2022-10-04T13:11:02.917Z,101604.50
2022-10-04T13:13:56.536Z,101603.31
2022-10-04T13:19:32.889Z,101598.16
2022-10-04T13:22:15.630Z,101594.63
2022-10-04T13:24:55.333Z,101597.91
2022-10-04T13:27:27.175Z,101598.78
2022-10-04T13:30:26.407Z,101592.38
2022-10-04T13:33:17.888Z,101595.81
2022-10-04T13:36:05.282Z,101591.94
2022-10-04T13:38:35.585Z,101606.22
2022-10-04T13:41:11.160Z,101593.06
2022-10-04T13:43:40.434Z,101582.31
2022-10-04T13:46:26.619Z,101573.03
2022-10-04T13:49:24.108Z,101567.59
2022-10-04T13:52:37.098Z,101556.34
2022-10-04T13:55:28.323Z,101556.38
2022-10-04T13:58:02.111Z,101540.69
2022-10-04T14:00:50.716Z,101532.19
2022-10-04T14:03:36.095Z,101545.88
2022-10-04T14:06:11.385Z,101533.88
2022-10-04T14:08:48.343Z,101515.25
2022-10-04T14:11:47.267Z,101518.28
2022-10-04T14:14:39.987Z,101517.41
2022-10-04T14:17:45.044Z,101511.75
2022-10-04T14:20:48.171Z,101511.69
2022-10-04T14:23:36.308Z,101512.34
2022-10-04T14:26:08.425Z,101506.81
2022-10-04T14:28:59.183Z,101506.31
2022-10-04T14:31:46.609Z,101513.41
2022-10-04T14:35:00.339Z,101512.66
2022-10-04T14:38:04.185Z,101515.63
2022-10-04T14:41:08.672Z,101512.09
2022-10-04T14:43:47.224Z,101523.59
2022-10-04T14:46:40.473Z,101515.63
2022-10-04T14:49:15.707Z,101513.97
2022-10-04T14:52:08.519Z,101518.75
2022-10-04T14:54:53.998Z,101510.19
2022-10-04T14:57:38.826Z,101508.34
2022-10-04T15:00:17.365Z,101514.25
2022-10-04T15:03:09.938Z,101517.59
2022-10-04T15:05:59.744Z,101528.69
2022-10-04T15:08:34.908Z,101524.03
2022-10-04T15:11:04.435Z,101519.66
2022-10-04T15:13:48.876Z,101521.22
2022-10-04T15:16:47.398Z,101525.94
2022-10-04T15:19:20.165Z,101535.75
2022-10-04T15:21:55.466Z,101543.97
2022-10-04T15:24:43.447Z,101540.34
2022-10-04T15:27:34.901Z,101533.25
2022-10-04T15:30:21.872Z,101538.06
2022-10-04T15:33:25.366Z,101520.09
2022-10-04T15:35:57.691Z,101530.84
2022-10-04T15:39:03.983Z,101527.66
2022-10-04T15:41:52.545Z,101523.63
2022-10-04T15:44:46.796Z,101530.81
2022-10-04T15:47:21.721Z,101525.78
2022-10-04T15:49:55.683Z,101513.69
2022-10-04T15:52:52.807Z,101520.56
2022-10-04T15:55:31.790Z,101521.59
2022-10-04T15:58:16.878Z,101520.00
2022-10-04T16:00:52.980Z,101504.44
2022-10-04T16:03:41.053Z,101513.44
2022-10-04T16:06:27.980Z,101500.88
2022-10-04T16:09:18.368Z,101503.25
2022-10-04T16:12:02.868Z,101515.03
2022-10-04T16:14:45.125Z,101515.69
2022-10-04T16:17:32.267Z,101512.31
2022-10-04T16:20:23.881Z,101517.09
2022-10-04T16:23:29.707Z,101520.41
2022-10-04T16:25:58.921Z,101533.19
2022-10-04T16:28:31.417Z,101526.25
2022-10-04T16:31:20.192Z,101526.06
2022-10-04T16:34:11.759Z,101521.25
2022-10-04T16:36:48.634Z,101532.09
2022-10-04T16:39:52.432Z,101532.63
2022-10-04T16:42:24.998Z,101533.97
2022-10-04T16:45:11.866Z,101533.50
2022-10-04T16:47:47.382Z,101539.97
2022-10-04T16:50:14.272Z,101539.50
2022-10-04T16:53:04.389Z,101539.03
2022-10-04T16:55:51.489Z,101534.31
2022-10-04T16:58:43.361Z,101538.53
2022-10-04T17:01:22.027Z,101537.88
2022-10-04T17:04:04.028Z,101539.81
2022-10-04T17:06:59.641Z,101537.56
2022-10-04T17:09:29.044Z,101542.84
2022-10-04T17:12:14.207Z,101548.47
2022-10-04T17:14:56.607Z,101543.69
2022-10-04T17:17:35.034Z,101543.34
2022-10-04T17:20:17.805Z,101546.25
2022-10-04T17:23:18.377Z,101549.22
2022-10-04T17:25:57.076Z,101546.44
2022-10-04T17:28:30.497Z,101547.38
2022-10-04T17:31:08.478Z,101547.38
2022-10-04T17:33:34.791Z,101548.84
2022-10-04T17:36:23.905Z,101537.78
2022-10-04T17:39:18.739Z,101546.09
2022-10-04T17:42:01.203Z,101547.97
2022-10-04T17:44:34.160Z,101549.72
2022-10-04T17:47:04.342Z,101536.66
2022-10-04T17:49:55.116Z,101546.69
2022-10-04T17:52:48.113Z,101543.66
2022-10-04T17:55:28.815Z,101546.22
2022-10-04T17:58:14.682Z,101543.56
2022-10-04T18:01:07.717Z,101544.47
2022-10-04T18:03:45.326Z,101539.88
2022-10-04T18:06:25.554Z,101538.50
2022-10-04T18:08:58.995Z,101537.19
2022-10-04T18:11:44.132Z,101528.28
2022-10-04T18:14:21.073Z,101542.94
2022-10-04T18:16:54.451Z,101539.38
2022-10-04T18:19:54.731Z,101534.22
2022-10-04T18:22:26.490Z,101517.22
2022-10-04T18:25:14.084Z,101513.81
2022-10-04T18:28:06.862Z,101508.31
2022-10-04T18:30:48.915Z,101515.47
2022-10-04T18:33:16.918Z,101523.13
2022-10-04T18:36:07.645Z,101537.06
2022-10-04T18:38:35.101Z,101526.34
2022-10-04T18:41:23.325Z,101517.31
2022-10-04T18:43:52.280Z,101521.91
2022-10-04T18:46:21.170Z,101522.31
2022-10-04T18:48:56.596Z,101530.94
2022-10-04T18:51:29.726Z,101533.31
2022-10-04T18:54:13.746Z,101522.06
2022-10-04T18:57:14.205Z,101529.94
2022-10-04T19:00:20.865Z,101522.78
2022-10-04T19:02:58.807Z,101524.19
2022-10-04T19:05:51.378Z,101527.88
2022-10-04T19:08:37.084Z,101521.25
2022-10-04T19:11:15.960Z,101517.38
2022-10-04T19:14:08.604Z,101514.50
2022-10-04T19:17:03.145Z,101525.75
2022-10-04T19:19:51.479Z,101519.81
2022-10-04T19:22:39.512Z,101515.41
2022-10-04T19:25:30.015Z,101512.19
2022-10-04T19:28:18.829Z,101508.78
2022-10-04T19:30:57.139Z,101498.56
2022-10-04T19:33:45.327Z,101490.59
2022-10-04T19:36:46.484Z,101479.75
2022-10-04T19:39:39.811Z,101476.03
2022-10-04T19:42:13.946Z,101484.13
2022-10-04T19:44:52.578Z,101475.00
2022-10-04T19:47:43.987Z,101473.44
2022-10-04T19:50:35.236Z,101476.88
2022-10-04T19:53:18.853Z,101485.91
2022-10-04T19:55:56.646Z,101486.56
2022-10-04T19:58:36.660Z,101475.50
2022-10-04T20:01:11.361Z,101484.34
2022-10-04T20:03:38.248Z,101485.91
2022-10-04T20:06:05.531Z,101484.03
2022-10-04T20:08:47.139Z,101475.84
2022-10-04T20:11:20.740Z,101470.56
2022-10-04T20:14:16.864Z,101485.06
2022-10-04T20:16:46.643Z,101473.16
2022-10-04T20:19:18.002Z,101471.63
2022-10-04T20:21:45.395Z,101479.59
2022-10-04T20:24:17.215Z,101484.38
2022-10-04T20:26:56.833Z,101482.97
2022-10-04T20:29:38.511Z,101491.84
2022-10-04T20:32:06.188Z,101489.63
2022-10-04T20:34:38.573Z,101489.28
2022-10-04T20:37:09.918Z,101485.69
2022-10-04T20:39:39.970Z,101484.13
2022-10-04T20:42:36.349Z,101489.59
2022-10-04T20:45:22.232Z,101491.16
2022-10-04T20:47:52.440Z,101482.06
2022-10-04T20:50:29.957Z,101490.63
2022-10-04T20:52:58.833Z,101472.78
2022-10-04T20:55:28.482Z,101473.13
2022-10-04T20:57:58.292Z,101486.75
2022-10-04T21:00:26.971Z,101489.28
2022-10-04T21:03:09.736Z,101482.81
2022-10-04T21:05:36.708Z,101493.22
2022-10-04T21:08:24.778Z,101495.56
2022-10-04T21:11:06.114Z,101501.38
2022-10-04T21:13:59.693Z,101496.78
2022-10-04T21:16:48.415Z,101495.06
2022-10-04T21:19:44.020Z,101495.47
2022-10-04T21:22:16.342Z,101494.25
2022-10-04T21:24:48.796Z,101499.19
2022-10-04T21:27:39.586Z,101507.19
2022-10-04T21:30:12.816Z,101510.25
2022-10-04T21:32:39.251Z,101509.44
2022-10-04T21:35:07.314Z,101511.28
2022-10-04T21:37:34.707Z,101507.88
2022-10-04T21:40:01.387Z,101515.34
2022-10-04T21:42:28.072Z,101515.53
2022-10-04T21:44:54.427Z,101514.34
2022-10-04T21:47:21.719Z,101514.69
2022-10-04T21:49:49.640Z,101511.81
2022-10-04T21:52:18.023Z,101506.88
2022-10-04T21:54:45.233Z,101511.31
2022-10-04T21:57:12.704Z,101511.50
2022-10-04T21:59:39.145Z,101522.56
2022-10-04T22:02:06.837Z,101508.09
2022-10-04T22:04:33.395Z,101503.50
2022-10-04T22:06:59.756Z,101501.97
2022-10-04T22:09:26.416Z,101499.75
2022-10-04T22:11:52.805Z,101490.06
2022-10-04T22:14:19.173Z,101490.06
2022-10-04T22:16:45.947Z,101489.38
2022-10-04T22:19:12.527Z,101479.03
2022-10-04T22:21:38.919Z,101480.09
2022-10-04T22:24:16.011Z,101482.41
2022-10-04T22:26:42.367Z,101484.31
2022-10-04T22:29:13.463Z,101486.19
2022-10-04T22:31:43.983Z,101470.41
2022-10-04T22:34:19.380Z,101467.28
2022-10-04T22:36:47.715Z,101475.66
2022-10-04T22:39:17.499Z,101464.25
2022-10-04T22:42:00.348Z,101469.66
2022-10-04T22:44:37.884Z,101460.34
2022-10-04T22:47:10.875Z,101461.53
2022-10-04T22:49:40.118Z,101462.75
2022-10-04T22:52:13.450Z,101447.47
2022-10-04T22:54:44.381Z,101451.75
2022-10-04T22:57:14.248Z,101455.28
2022-10-04T22:59:46.593Z,101449.38
2022-10-04T23:02:19.592Z,101445.44
2022-10-04T23:04:51.542Z,101446.28
2022-10-04T23:07:19.264Z,101447.50
2022-10-04T23:09:46.126Z,101445.44
2022-10-04T23:12:12.745Z,101445.44
2022-10-04T23:14:40.182Z,101445.63
2022-10-04T23:17:22.957Z,101439.88
2022-10-04T23:19:55.289Z,101434.91
2022-10-04T23:22:27.686Z,101428.19
2022-10-04T23:24:55.256Z,101438.47
2022-10-04T23:27:21.970Z,101436.44
2022-10-04T23:29:58.939Z,101444.78
2022-10-04T23:32:26.324Z,101439.00
2022-10-04T23:34:56.673Z,101435.81
2022-10-04T23:37:27.243Z,101438.72
2022-10-04T23:39:53.646Z,101450.06
2022-10-04T23:42:28.887Z,101442.59
2022-10-04T23:44:57.595Z,101453.50
2022-10-04T23:47:30.368Z,101446.50
2022-10-04T23:49:56.734Z,101441.91
2022-10-04T23:52:26.470Z,101440.53
2022-10-04T23:54:53.889Z,101436.81
2022-10-04T23:57:23.677Z,101437.50
2022-10-04T23:59:50.327Z,101435.50
